Time;durP1;ratioP1;P1;durP2;ratioP2;P2;SDS_P1;SDS_P2;PMS_P1;PMS_P2;Temp;Humidity;BMP_temperature;BMP_pressure;BME280_temperature;BME280_humidity;BME280_pressure;Samples;Min_cycle;Max_cycle;Signal;HPM_P1;HPM_P2
2023/10/02 00:05:05;;;;;;;0.30;0.30;;;;;;;14.84;100.00;100736.72;5073972;28;20039;-58
2023/10/02 00:07:38;;;;;;;0.30;0.30;;;;;;;14.78;100.00;100728.91;5088651;28;20016;-58
2023/10/02 00:10:04;;;;;;;0.30;0.30;;;;;;;14.81;100.00;100731.47;5089564;28;20056;-58
2023/10/02 00:12:31;;;;;;;0.30;0.30;;;;;;;14.76;100.00;100724.56;5071519;28;20024;-58
2023/10/02 00:14:58;;;;;;;0.30;0.30;;;;;;;14.77;100.00;100726.28;5060803;28;20037;-58
2023/10/02 00:17:24;;;;;;;0.30;0.30;;;;;;;14.75;100.00;100722.78;5053279;28;20031;-58
2023/10/02 00:20:13;;;;;;;0.20;0.20;;;;;;;14.73;100.00;100714.81;5069717;28;20081;-60
2023/10/02 00:22:41;;;;;;;0.30;0.30;;;;;;;14.64;100.00;100717.88;5051874;28;20028;-60
2023/10/02 00:25:16;;;;;;;0.30;0.30;;;;;;;14.57;100.00;100719.00;5052343;28;20491;-60
2023/10/02 00:27:43;;;;;;;0.30;0.30;;;;;;;14.54;100.00;100724.50;5054213;28;20045;-60
2023/10/02 00:30:13;;;;;;;0.30;0.30;;;;;;;14.53;100.00;100726.28;5052218;28;20028;-60
2023/10/02 00:32:41;;;;;;;0.30;0.30;;;;;;;14.55;100.00;100722.69;5052143;28;20051;-60
2023/10/02 00:35:10;;;;;;;0.30;0.30;;;;;;;14.53;100.00;100706.66;5054368;28;20020;-60
2023/10/02 00:37:47;;;;;;;0.40;0.40;;;;;;;14.59;100.00;100719.84;5052225;28;20453;-60
2023/10/02 00:40:21;;;;;;;0.30;0.30;;;;;;;14.60;100.00;100713.53;5079275;28;20131;-60
2023/10/02 00:42:58;;;;;;;0.30;0.30;;;;;;;14.63;100.00;100713.41;5071246;28;20035;-60
2023/10/02 00:45:38;;;;;;;0.30;0.30;;;;;;;14.65;100.00;100702.66;5071055;28;20474;-60
2023/10/02 00:50:49;;;;;;;0.30;0.30;;;;;;;14.52;100.00;100711.16;5059490;28;20048;-60
2023/10/02 00:53:15;;;;;;;0.30;0.30;;;;;;;14.45;100.00;100703.41;5050182;28;20033;-60
2023/10/02 00:55:44;;;;;;;0.30;0.30;;;;;;;14.48;100.00;100711.31;5062800;28;20491;-60
2023/10/02 00:58:15;;;;;;;0.40;0.40;;;;;;;14.45;100.00;100706.06;5070637;28;20206;-60
2023/10/02 01:00:48;;;;;;;0.30;0.30;;;;;;;14.38;100.00;100692.06;5059304;28;20108;-60
2023/10/02 01:03:16;;;;;;;0.30;0.30;;;;;;;14.42;100.00;100698.16;5051606;28;20040;-60
2023/10/02 01:05:50;;;;;;;0.30;0.30;;;;;;;14.37;100.00;100705.50;5051734;28;20396;-60
2023/10/02 01:08:24;;;;;;;0.20;0.20;;;;;;;14.34;100.00;100701.16;5065614;28;20025;-59
2023/10/02 01:10:59;;;;;;;0.30;0.30;;;;;;;14.32;100.00;100702.13;5081614;28;20116;-59
2023/10/02 01:13:35;;;;;;;0.30;0.30;;;;;;;14.34;100.00;100700.25;5089897;28;20070;-59
2023/10/02 01:16:07;;;;;;;0.30;0.30;;;;;;;14.32;100.00;100697.66;5091827;28;20161;-59
2023/10/02 01:18:34;;;;;;;0.40;0.40;;;;;;;14.40;100.00;100708.94;5089620;28;20103;-59
2023/10/02 01:21:01;;;;;;;0.30;0.30;;;;;;;14.42;100.00;100704.41;5082094;28;20036;-59
2023/10/02 01:23:28;;;;;;;0.30;0.30;;;;;;;14.45;100.00;100692.69;5091298;28;20111;-59
2023/10/02 01:26:00;;;;;;;0.30;0.30;;;;;;;14.44;100.00;100707.03;5081330;28;20028;-59
2023/10/02 01:28:49;;;;;;;0.30;0.30;;;;;;;14.41;100.00;100712.50;5091247;28;20502;-59
2023/10/02 01:31:35;;;;;;;0.30;0.30;;;;;;;14.37;100.00;100713.53;5084366;28;20033;-57
2023/10/02 01:34:02;;;;;;;0.30;0.30;;;;;;;14.33;100.00;100711.91;5074631;28;20024;-58
2023/10/02 01:36:34;;;;;;;0.30;0.30;;;;;;;14.33;100.00;100710.09;5071574;28;20022;-58
2023/10/02 01:39:13;;;;;;;0.30;0.30;;;;;;;14.32;100.00;100702.13;5089852;28;20016;-58
2023/10/02 01:41:39;;;;;;;0.30;0.30;;;;;;;14.32;100.00;100702.13;5072690;28;20032;-58
2023/10/02 01:44:12;;;;;;;0.32;0.32;;;;;;;14.34;100.00;100708.28;5090012;28;20027;-58
2023/10/02 01:46:49;;;;;;;0.30;0.30;;;;;;;14.31;100.00;100700.38;5078304;28;20114;-58
2023/10/02 01:49:24;;;;;;;0.30;0.30;;;;;;;14.31;100.00;100700.38;5090079;28;20035;-58
2023/10/02 01:51:50;;;;;;;0.30;0.30;;;;;;;14.32;100.00;100707.47;5077784;28;20433;-57
2023/10/02 01:54:15;;;;;;;0.28;0.28;;;;;;;14.31;100.00;100706.63;5070827;28;20108;-58
2023/10/02 01:56:45;;;;;;;0.30;0.30;;;;;;;14.22;100.00;100677.47;5090376;28;20016;-58
2023/10/02 01:59:14;;;;;;;0.30;0.30;;;;;;;14.33;100.00;100695.84;5090921;28;20767;-57
2023/10/02 02:01:46;;;;;;;0.30;0.30;;;;;;;14.33;100.00;100703.88;5073474;28;20027;-58
2023/10/02 02:04:15;;;;;;;0.40;0.40;;;;;;;14.32;100.00;100702.13;5088708;28;20038;-58
2023/10/02 02:06:51;;;;;;;0.30;0.30;;;;;;;14.28;100.00;100700.50;5086136;28;20107;-58
2023/10/02 02:09:24;;;;;;;0.30;0.30;;;;;;;14.24;100.00;100701.50;5074214;28;20016;-59
2023/10/02 02:12:07;;;;;;;0.40;0.40;;;;;;;14.25;100.00;100705.94;5086336;28;20502;-58
2023/10/02 02:14:33;;;;;;;0.30;0.30;;;;;;;14.26;100.00;100697.00;5089786;28;20028;-58
2023/10/02 02:17:01;;;;;;;0.30;0.30;;;;;;;14.27;100.00;100706.75;5071488;28;20028;-58
2023/10/02 02:19:28;;;;;;;0.30;0.30;;;;;;;14.32;100.00;100702.13;5069602;28;20032;-58
2023/10/02 02:21:56;;;;;;;0.30;0.30;;;;;;;14.35;100.00;100702.00;5070262;28;20158;-58
2023/10/02 02:24:23;;;;;;;0.25;0.25;;;;;;;14.36;100.00;100693.06;5069859;28;20024;-58
2023/10/02 02:26:57;;;;;;;0.30;0.30;;;;;;;14.36;100.00;100695.72;5054159;28;20178;-58
2023/10/02 02:29:28;;;;;;;0.30;0.30;;;;;;;14.29;100.00;100697.75;5049988;28;20028;-58
2023/10/02 02:31:54;;;;;;;0.30;0.30;;;;;;;14.31;100.00;100695.03;5050099;28;20067;-58
2023/10/02 02:34:20;;;;;;;0.30;0.30;;;;;;;14.29;100.00;100705.78;5051009;28;20111;-57
2023/10/02 02:36:49;;;;;;;0.30;0.30;;;;;;;14.27;100.00;100709.44;5050696;28;20396;-58
2023/10/02 02:39:15;;;;;;;0.30;0.30;;;;;;;14.21;100.00;100707.84;5048676;28;20029;-60
2023/10/02 02:42:18;;;;;;;0.32;0.32;;;;;;;14.11;100.00;100700.19;5066436;28;20514;-62
2023/10/02 02:44:50;;;;;;;0.30;0.30;;;;;;;14.12;100.00;100712.63;5084464;28;20032;-60
2023/10/02 02:47:18;;;;;;;0.30;0.30;;;;;;;14.06;100.00;100707.50;5055180;28;20113;-60
2023/10/02 02:49:48;;;;;;;0.40;0.40;;;;;;;14.03;100.00;100704.94;5048725;28;20045;-61
2023/10/02 02:52:19;;;;;;;0.30;0.30;;;;;;;14.02;100.00;100714.75;5051436;28;20051;-61
2023/10/02 02:54:47;;;;;;;0.30;0.30;;;;;;;14.00;100.00;100710.41;5054578;28;20055;-61
2023/10/02 02:57:24;;;;;;;0.30;0.30;;;;;;;13.98;100.00;100702.44;5068403;28;20503;-61
2023/10/02 03:02:47;;;;;;;0.30;0.30;;;;;;;13.98;100.00;100702.44;5069593;28;20039;-61
2023/10/02 03:05:20;;;;;;;0.38;0.38;;;;;;;13.94;100.00;100705.25;5053756;28;20445;-60
2023/10/02 03:07:48;;;;;;;0.40;0.40;;;;;;;13.89;100.00;100702.75;5048996;28;20029;-61
2023/10/02 03:10:16;;;;;;;0.40;0.40;;;;;;;13.84;100.00;100718.09;5058808;28;20860;-60
2023/10/02 03:12:51;;;;;;;0.30;0.30;;;;;;;13.73;100.00;100712.25;5088964;28;20028;-61
2023/10/02 03:15:18;;;;;;;0.40;0.40;;;;;;;13.66;100.00;100713.38;5087421;28;20034;-61
2023/10/02 03:17:45;;;;;;;0.40;0.40;;;;;;;13.63;100.00;100715.28;5084563;28;20024;-61
2023/10/02 03:20:24;;;;;;;0.40;0.40;;;;;;;13.50;100.00;100697.91;5069135;28;20480;-61
2023/10/02 03:22:55;;;;;;;0.40;0.40;;;;;;;13.55;100.00;100722.69;5076888;28;20100;-61
2023/10/02 03:25:40;;;;;;;0.30;0.30;;;;;;;13.49;100.00;100718.44;5069397;28;20524;-61
2023/10/02 03:28:16;;;;;;;0.35;0.35;;;;;;;13.47;100.00;100722.06;5078631;28;20070;-61
2023/10/02 03:30:43;;;;;;;0.30;0.30;;;;;;;13.47;100.00;100720.28;5069806;28;20025;-60
2023/10/02 03:33:18;;;;;;;0.40;0.40;;;;;;;13.49;100.00;100722.88;5087844;28;20027;-61
2023/10/02 03:36:10;;;;;;;0.30;0.30;;;;;;;13.42;100.00;100711.53;5070016;28;20024;-61
2023/10/02 03:38:48;;;;;;;0.40;0.40;;;;;;;13.44;100.00;100723.06;5080711;28;20115;-60
2023/10/02 03:41:14;;;;;;;0.40;0.40;;;;;;;13.40;100.00;100717.84;5082424;28;20144;-59
2023/10/02 03:43:48;;;;;;;0.30;0.30;;;;;;;13.36;100.00;100719.72;5083711;28;20032;-60
2023/10/02 03:46:22;;;;;;;0.30;0.30;;;;;;;13.31;100.00;100723.50;5086384;28;20071;-59
2023/10/02 03:48:51;;;;;;;0.40;0.40;;;;;;;13.29;100.00;100725.34;5088081;28;20073;-57
2023/10/02 03:51:36;;;;;;;0.30;0.30;;;;;;;13.28;100.00;100723.59;5084224;28;20395;-57
2023/10/02 03:54:18;;;;;;;0.40;0.40;;;;;;;13.31;100.00;100723.50;5068854;28;20502;-57
2023/10/02 03:56:50;;;;;;;0.40;0.40;;;;;;;13.24;100.00;100715.66;5083995;28;20092;-57
2023/10/02 03:59:21;;;;;;;0.40;0.40;;;;;;;13.24;100.00;100723.66;5069015;28;20395;-57
2023/10/02 04:01:49;;;;;;;0.30;0.30;;;;;;;13.27;100.00;100721.84;5069029;28;20099;-57
2023/10/02 04:06:43;;;;;;;0.40;0.40;;;;;;;13.23;100.00;100716.59;5089170;28;20024;-57
2023/10/02 04:11:45;;;;;;;0.40;0.40;;;;;;;13.24;100.00;100721.00;5084008;28;20040;-56
2023/10/02 04:14:17;;;;;;;0.50;0.50;;;;;;;13.24;100.00;100718.31;5088418;28;20116;-57
2023/10/02 04:16:49;;;;;;;0.40;0.40;;;;;;;13.27;100.00;100717.38;5070758;28;20021;-57
2023/10/02 04:19:24;;;;;;;0.40;0.40;;;;;;;13.30;100.00;100716.38;5070662;28;20028;-57
2023/10/02 04:21:53;;;;;;;0.40;0.40;;;;;;;13.20;100.00;100711.34;5075929;28;20432;-57
2023/10/02 04:24:25;;;;;;;0.30;0.30;;;;;;;13.12;100.00;100713.41;5086091;28;20028;-57
2023/10/02 04:27:14;;;;;;;0.40;0.40;;;;;;;13.08;100.00;100709.06;5090914;28;20028;-56
2023/10/02 04:29:39;;;;;;;0.40;0.40;;;;;;;13.07;100.00;100712.66;5088896;28;20102;-56
2023/10/02 04:32:15;;;;;;;0.40;0.40;;;;;;;12.85;100.00;100684.84;5089321;28;20067;-57
2023/10/02 04:34:50;;;;;;;0.40;0.40;;;;;;;12.96;100.00;100716.56;5091480;28;20030;-57
2023/10/02 04:37:20;;;;;;;0.40;0.40;;;;;;;12.99;100.00;100717.34;5087900;28;20019;-57
2023/10/02 04:42:25;;;;;;;0.38;0.38;;;;;;;13.01;100.00;100712.84;5074430;28;20028;-57
2023/10/02 04:44:56;;;;;;;0.40;0.40;;;;;;;12.90;100.00;100714.94;5072174;28;20082;-57
2023/10/02 04:47:26;;;;;;;0.40;0.40;;;;;;;12.97;100.00;100713.84;5079430;28;20027;-57
2023/10/02 04:55:25;;;;;;;0.40;0.40;;;;;;;12.87;100.00;100712.38;5081807;28;20479;-57
2023/10/02 04:57:54;;;;;;;0.40;0.40;;;;;;;12.83;100.00;100724.06;5092105;28;20031;-57
2023/10/02 05:00:35;;;;;;;0.50;0.50;;;;;;;12.80;100.00;100726.81;5086747;28;20058;-59
2023/10/02 05:03:24;;;;;;;0.30;0.30;;;;;;;12.84;100.00;100728.50;5072111;28;20031;-59
2023/10/02 05:05:53;;;;;;;0.40;0.40;;;;;;;12.83;100.00;100725.88;5074156;28;20104;-59
2023/10/02 05:08:41;;;;;;;0.40;0.40;;;;;;;12.83;100.00;100720.53;5071345;28;20020;-59
2023/10/02 05:11:23;;;;;;;0.40;0.40;;;;;;;12.88;100.00;100727.47;5079895;28;20047;-59
2023/10/02 05:16:33;;;;;;;0.50;0.50;;;;;;;12.97;100.00;100727.19;5090545;28;20044;-59
2023/10/02 05:19:00;;;;;;;0.40;0.40;;;;;;;12.98;100.00;100726.25;5076892;28;20033;-59
2023/10/02 05:21:36;;;;;;;0.40;0.40;;;;;;;12.99;100.00;100728.03;5074625;28;20402;-59
2023/10/02 05:24:12;;;;;;;0.40;0.40;;;;;;;13.01;100.00;100725.34;5089527;28;20023;-58
2023/10/02 05:26:41;;;;;;;0.40;0.40;;;;;;;12.99;100.00;100725.38;5087788;28;20675;-59
2023/10/02 05:29:08;;;;;;;0.40;0.40;;;;;;;12.88;100.00;100719.44;5078636;28;20437;-59
2023/10/02 05:31:40;;;;;;;0.40;0.40;;;;;;;12.93;100.00;100743.38;5090147;28;20099;-59
2023/10/02 05:34:23;;;;;;;0.50;0.50;;;;;;;12.91;100.00;100738.06;5074005;28;20558;-58
2023/10/02 05:37:23;;;;;;;0.50;0.50;;;;;;;12.95;100.00;100741.50;5069315;28;20048;-59
2023/10/02 05:39:50;;;;;;;0.40;0.40;;;;;;;13.01;100.00;100736.88;5070857;28;20040;-59
2023/10/02 05:42:15;;;;;;;0.50;0.50;;;;;;;13.04;100.00;100739.47;5085223;28;20051;-59
2023/10/02 05:44:45;;;;;;;0.40;0.40;;;;;;;13.06;100.00;100742.09;5090061;28;20568;-59
2023/10/02 05:47:15;;;;;;;0.40;0.40;;;;;;;13.05;100.00;100743.00;5089857;28;20336;-59
2023/10/02 05:49:47;;;;;;;0.30;0.30;;;;;;;13.08;100.00;100743.78;5075733;28;20024;-59
2023/10/02 05:52:18;;;;;;;0.40;0.40;;;;;;;13.08;100.00;100749.13;5090350;28;20035;-59
2023/10/02 05:54:49;;;;;;;0.40;0.40;;;;;;;13.08;100.00;100740.22;5084295;28;20027;-59
2023/10/02 05:57:17;;;;;;;0.30;0.30;;;;;;;13.07;100.00;100739.38;5090862;28;20024;-59
2023/10/02 05:59:45;;;;;;;0.40;0.40;;;;;;;13.04;100.00;100752.84;5086845;28;20407;-59
2023/10/02 06:02:15;;;;;;;0.40;0.40;;;;;;;13.09;100.00;100744.66;5090653;28;20028;-60
2023/10/02 06:04:45;;;;;;;0.30;0.30;;;;;;;13.16;100.00;100752.44;5090815;28;20856;-59
2023/10/02 06:07:11;;;;;;;0.40;0.40;;;;;;;13.27;100.00;100748.53;5086576;28;20031;-59
2023/10/02 06:09:45;;;;;;;0.40;0.40;;;;;;;13.35;100.00;100757.19;5090267;28;20040;-59
2023/10/02 06:12:11;;;;;;;0.40;0.40;;;;;;;13.45;100.00;100755.97;5062700;28;20049;-59
2023/10/02 06:14:43;;;;;;;0.30;0.30;;;;;;;13.53;100.00;100754.81;5048754;28;20429;-59
2023/10/02 06:17:13;;;;;;;0.40;0.40;;;;;;;13.85;100.00;100751.94;5050075;28;20040;-59
2023/10/02 06:19:43;;;;;;;0.40;0.40;;;;;;;14.39;100.00;100751.81;5050811;28;20068;-59
2023/10/02 06:22:15;;;;;;;0.40;0.40;;;;;;;15.25;100.00;100756.53;5047747;28;20025;-59
2023/10/02 06:24:42;;;;;;;0.40;0.40;;;;;;;16.29;100.00;100752.13;5050364;28;20068;-59
2023/10/02 06:27:16;;;;;;;0.30;0.30;;;;;;;17.21;100.00;100748.72;5049010;28;20539;-59
2023/10/02 06:29:47;;;;;;;;;;;;;;;18.16;95.62;100754.69;5054073;28;20028;-59
2023/10/02 06:32:16;;;;;;;0.30;0.30;;;;;;;19.15;87.63;100757.38;5048773;28;19909;-59
2023/10/02 06:34:45;;;;;;;0.20;0.20;;;;;;;20.49;78.87;100760.22;5060467;28;20074;-59
2023/10/02 06:37:17;;;;;;;0.22;0.22;;;;;;;21.79;71.51;100762.69;5054833;28;20036;-59
2023/10/02 06:39:45;;;;;;;0.30;0.30;;;;;;;22.73;63.44;100766.06;5049325;28;20104;-59
2023/10/02 06:42:15;;;;;;;0.20;0.20;;;;;;;23.43;58.97;100762.72;5061051;28;20025;-59
2023/10/02 06:44:53;;;;;;;0.20;0.20;;;;;;;23.90;56.08;100766.47;5048676;28;20116;-59
2023/10/02 06:47:24;;;;;;;0.20;0.20;;;;;;;24.19;55.07;100765.16;5048713;28;20021;-59
2023/10/02 06:49:53;;;;;;;0.20;0.20;;;;;;;24.43;54.00;100766.84;5058905;28;20103;-59
2023/10/02 06:52:24;;;;;;;0.20;0.20;;;;;;;24.80;53.35;100764.84;5064831;28;20043;-59
2023/10/02 06:54:55;;;;;;;0.20;0.20;;;;;;;25.45;51.25;100768.59;5074983;28;20032;-59
2023/10/02 06:57:22;;;;;;;0.20;0.20;;;;;;;26.13;49.56;100771.03;5075530;28;20115;-59
2023/10/02 06:59:54;;;;;;;0.10;0.10;;;;;;;26.12;49.04;100779.34;5069557;28;20025;-60
2023/10/02 07:02:27;;;;;;;0.10;0.10;;;;;;;25.93;50.31;100775.41;5069585;28;20036;-60
2023/10/02 07:04:54;;;;;;;0.20;0.20;;;;;;;26.48;48.93;100771.63;5070066;28;20051;-60
2023/10/02 07:07:26;;;;;;;0.20;0.20;;;;;;;26.93;47.68;100777.69;5055630;28;20028;-59
2023/10/02 07:10:07;;;;;;;0.10;0.10;;;;;;;27.16;46.94;100768.31;5050491;28;20081;-59
2023/10/02 07:12:40;;;;;;;0.10;0.10;;;;;;;27.42;46.53;100768.72;5072039;28;20043;-59
2023/10/02 07:15:22;;;;;;;0.20;0.20;;;;;;;27.84;45.73;100768.41;5068710;28;20459;-59
2023/10/02 07:18:00;;;;;;;0.10;0.10;;;;;;;28.12;45.06;100775.81;5071844;28;20511;-59
2023/10/02 07:20:35;;;;;;;0.10;0.10;;;;;;;28.27;44.44;100774.38;5068485;28;20048;-59
2023/10/02 07:23:09;;;;;;;0.10;0.10;;;;;;;28.12;45.06;100780.44;5068364;28;20072;-59
2023/10/02 07:25:35;;;;;;;0.10;0.10;;;;;;;28.38;44.88;100776.13;5068487;28;20109;-59
2023/10/02 07:28:03;;;;;;;0.10;0.10;;;;;;;28.83;44.75;100770.91;5075278;28;20111;-58
2023/10/02 07:30:29;;;;;;;0.10;0.10;;;;;;;29.27;43.81;100765.59;5089334;28;20098;-59
2023/10/02 07:33:02;;;;;;;0.10;0.10;;;;;;;29.60;42.63;100772.38;5089408;28;20028;-59
2023/10/02 07:35:28;;;;;;;;;;;;;;;29.50;43.57;100777.03;5090053;28;20489;-59
2023/10/02 07:37:59;;;;;;;0.10;0.10;;;;;;;29.65;42.67;100764.53;5073698;28;19916;-59
2023/10/02 07:40:48;;;;;;;0.10;0.10;;;;;;;29.56;42.96;100760.84;5073760;28;20126;-59
2023/10/02 07:43:21;;;;;;;0.10;0.10;;;;;;;29.83;43.44;100770.94;5085778;28;20059;-58
2023/10/02 07:46:14;;;;;;;0.10;0.10;;;;;;;30.47;41.83;100766.13;5089482;28;20024;-58
2023/10/02 07:48:41;;;;;;;0.10;0.10;;;;;;;30.59;41.57;100766.75;5087170;28;20051;-58
2023/10/02 07:51:09;;;;;;;0.10;0.10;;;;;;;30.26;42.69;100765.63;5084853;28;20039;-59
2023/10/02 07:53:41;;;;;;;0.10;0.10;;;;;;;30.08;42.51;100766.59;5081734;28;20658;-59
2023/10/02 07:56:14;;;;;;;0.10;0.10;;;;;;;29.99;42.63;100754.66;5084939;28;20028;-58
2023/10/02 07:58:41;;;;;;;0.10;0.10;;;;;;;29.44;43.82;100766.69;5071291;28;20024;-59
2023/10/02 08:01:11;;;;;;;0.10;0.10;;;;;;;29.41;43.78;100761.47;5075811;28;20437;-58
2023/10/02 08:03:43;;;;;;;0.10;0.10;;;;;;;29.62;44.56;100762.09;5089461;28;20033;-58
2023/10/02 08:11:50;;;;;;;0.03;0.03;;;;;;;29.45;44.09;100760.16;5077468;28;20055;-58
2023/10/02 08:14:35;;;;;;;0.10;0.10;;;;;;;29.51;44.03;100756.81;5084747;28;20028;-58
2023/10/02 08:17:22;;;;;;;0.10;0.10;;;;;;;28.90;45.12;100759.19;5077726;28;20020;-58
2023/10/02 08:19:56;;;;;;;0.05;0.05;;;;;;;29.01;45.38;100747.22;5071686;28;20035;-58
2023/10/02 08:22:36;;;;;;;0.10;0.10;;;;;;;28.92;45.28;100748.09;5086253;28;20035;-58
2023/10/02 08:25:03;;;;;;;0.10;0.10;;;;;;;28.78;45.61;100751.31;5072934;28;20038;-58
2023/10/02 08:27:32;;;;;;;0.00;0.00;;;;;;;28.50;46.17;100755.81;5072484;28;20032;-58
2023/10/02 08:29:57;;;;;;;0.10;0.10;;;;;;;28.53;46.06;100750.06;5077424;28;20029;-58
2023/10/02 08:32:30;;;;;;;0.10;0.10;;;;;;;28.48;46.72;100750.44;5071272;28;20063;-58
2023/10/02 08:34:57;;;;;;;0.05;0.05;;;;;;;28.37;46.76;100758.81;5070919;28;20463;-58
2023/10/02 08:37:23;;;;;;;0.00;0.00;;;;;;;28.39;47.55;100745.88;5073341;28;20032;-58
2023/10/02 08:39:51;;;;;;;0.05;0.05;;;;;;;28.59;47.05;100751.34;5071341;28;20102;-58
2023/10/02 08:42:18;;;;;;;0.00;0.00;;;;;;;28.74;47.07;100744.41;5079197;28;20078;-58
2023/10/02 08:44:43;;;;;;;0.00;0.00;;;;;;;28.88;46.68;100742.03;5072233;28;20020;-58
2023/10/02 08:47:11;;;;;;;0.00;0.00;;;;;;;28.83;46.26;100751.75;5072859;28;20832;-58
2023/10/02 08:49:40;;;;;;;0.00;0.00;;;;;;;28.61;46.67;100746.59;5071899;28;20034;-58
2023/10/02 08:52:10;;;;;;;0.00;0.00;;;;;;;28.90;47.39;100744.63;5071996;28;20729;-58
2023/10/02 08:54:35;;;;;;;0.00;0.00;;;;;;;28.93;47.67;100738.88;5074639;28;20051;-58
2023/10/02 08:57:06;;;;;;;0.00;0.00;;;;;;;28.82;47.42;100745.38;5077086;28;20398;-57
2023/10/02 08:59:38;;;;;;;0.00;0.00;;;;;;;28.61;47.16;100741.97;5082066;28;20082;-58
2023/10/02 09:02:08;;;;;;;0.00;0.00;;;;;;;28.64;47.22;100740.81;5077903;28;20096;-58
2023/10/02 09:04:34;;;;;;;0.00;0.00;;;;;;;28.82;46.65;100741.78;5070849;28;20082;-57
2023/10/02 09:07:13;;;;;;;0.00;0.00;;;;;;;28.90;46.22;100740.03;5070417;28;20032;-57
2023/10/02 09:09:45;;;;;;;0.00;0.00;;;;;;;29.15;46.15;100736.66;5071174;28;20024;-57
2023/10/02 09:12:15;;;;;;;0.00;0.00;;;;;;;29.45;46.02;100736.38;5074128;28;20710;-57
2023/10/02 09:14:41;;;;;;;0.00;0.00;;;;;;;29.58;45.95;100736.00;5070652;28;20081;-57
2023/10/02 09:17:22;;;;;;;0.00;0.00;;;;;;;29.77;44.75;100733.16;5073722;28;20371;-57
2023/10/02 09:20:07;;;;;;;0.00;0.00;;;;;;;29.83;44.44;100729.81;5088043;28;20028;-57
2023/10/02 09:22:37;;;;;;;0.00;0.00;;;;;;;29.85;45.14;100733.25;5086831;28;20020;-58
2023/10/02 09:25:10;;;;;;;0.00;0.00;;;;;;;30.08;44.02;100734.53;5081682;28;20066;-57
2023/10/02 09:27:41;;;;;;;0.00;0.00;;;;;;;30.21;44.44;100740.47;5076424;28;20865;-57
2023/10/02 09:32:47;;;;;;;0.00;0.00;;;;;;;30.60;44.61;100725.38;5073565;28;20316;-58
2023/10/02 09:35:44;;;;;;;0.00;0.00;;;;;;;30.36;44.35;100722.44;5073988;28;20028;-58
2023/10/02 09:38:13;;;;;;;0.00;0.00;;;;;;;30.49;45.06;100705.56;5089749;28;20020;-57
2023/10/02 09:43:23;;;;;;;0.00;0.00;;;;;;;30.71;43.91;100703.13;5079087;28;20020;-58
2023/10/02 09:45:53;;;;;;;0.00;0.00;;;;;;;30.49;44.69;100702.81;5084749;28;20028;-58
2023/10/02 09:51:26;;;;;;;0.00;0.00;;;;;;;31.10;45.11;100699.97;5076259;28;20028;-57
2023/10/02 09:54:08;;;;;;;0.00;0.00;;;;;;;31.15;43.59;100695.69;5075996;28;20025;-57
2023/10/02 09:57:04;;;;;;;0.00;0.00;;;;;;;31.08;44.28;100691.00;5070445;28;20879;-58
2023/10/02 09:59:46;;;;;;;0.00;0.00;;;;;;;31.18;43.75;100697.25;5086252;28;20024;-57
2023/10/02 10:08:18;;;;;;;0.00;0.00;;;;;;;31.48;42.65;100682.97;5079070;28;20043;-57
2023/10/02 10:10:52;;;;;;;0.00;0.00;;;;;;;31.53;42.83;100686.91;5069775;28;20052;-57
2023/10/02 10:13:24;;;;;;;0.00;0.00;;;;;;;31.68;42.11;100685.22;5083501;28;20074;-58
2023/10/02 10:15:50;;;;;;;0.00;0.00;;;;;;;31.66;41.77;100681.81;5070257;28;20496;-57
2023/10/02 10:18:17;;;;;;;0.00;0.00;;;;;;;31.75;42.14;100686.28;5075678;28;20059;-58
2023/10/02 10:20:44;;;;;;;0.00;0.00;;;;;;;32.08;41.52;100674.31;5071244;28;20655;-57
2023/10/02 10:23:31;;;;;;;0.00;0.00;;;;;;;32.32;41.60;100675.34;5069672;28;20056;-58
2023/10/02 10:26:08;;;;;;;0.00;0.00;;;;;;;31.88;41.92;100675.69;5071900;28;20060;-58
2023/10/02 10:28:50;;;;;;;0.00;0.00;;;;;;;32.17;41.93;100666.94;5075275;28;20020;-58
2023/10/02 10:31:27;;;;;;;0.00;0.00;;;;;;;32.94;41.17;100669.97;5069283;28;20024;-58
2023/10/02 10:33:56;;;;;;;0.00;0.00;;;;;;;33.04;40.67;100659.59;5070572;28;20045;-58
2023/10/02 10:36:39;;;;;;;0.00;0.00;;;;;;;32.73;40.23;100653.13;5069140;28;20028;-58
2023/10/02 10:39:30;;;;;;;0.00;0.00;;;;;;;32.65;40.16;100652.28;5068982;28;20055;-58
2023/10/02 10:42:03;;;;;;;0.00;0.00;;;;;;;32.92;41.17;100644.47;5074137;28;20054;-58
2023/10/02 10:44:33;;;;;;;0.00;0.00;;;;;;;33.28;38.71;100648.44;5068862;28;20142;-58
2023/10/02 10:47:03;;;;;;;0.00;0.00;;;;;;;33.39;40.40;100647.19;5071347;28;20102;-58
2023/10/02 10:49:52;;;;;;;0.00;0.00;;;;;;;33.25;39.07;100643.28;5068123;28;20116;-58
2023/10/02 10:52:34;;;;;;;0.00;0.00;;;;;;;33.26;39.38;100647.75;5067146;28;20078;-58
2023/10/02 10:55:04;;;;;;;0.00;0.00;;;;;;;33.41;39.42;100638.72;5071827;28;20367;-58
2023/10/02 10:57:51;;;;;;;0.00;0.00;;;;;;;33.20;39.18;100637.44;5080417;28;20141;-58
2023/10/02 11:00:26;;;;;;;0.00;0.00;;;;;;;33.29;38.89;100641.91;5070247;28;20040;-58
2023/10/02 11:03:08;;;;;;;0.00;0.00;;;;;;;33.16;39.80;100630.56;5067508;28;20357;-58
2023/10/02 11:05:35;;;;;;;0.00;0.00;;;;;;;33.46;39.41;100631.63;5069707;28;20039;-58
2023/10/02 11:08:25;;;;;;;0.00;0.00;;;;;;;33.75;38.44;100631.81;5067566;28;20170;-59
2023/10/02 11:11:00;;;;;;;0.00;0.00;;;;;;;33.96;40.00;100629.25;5076182;28;20056;-59
2023/10/02 11:13:28;;;;;;;0.00;0.00;;;;;;;34.15;38.95;100627.88;5088960;28;20076;-58
2023/10/02 11:16:08;;;;;;;0.00;0.00;;;;;;;33.97;37.59;100621.84;5074071;28;20036;-58
2023/10/02 11:18:38;;;;;;;0.00;0.00;;;;;;;33.87;38.37;100618.44;5085362;28;20506;-58
2023/10/02 11:21:21;;;;;;;0.00;0.00;;;;;;;34.18;38.77;100611.81;5076151;28;20020;-59
2023/10/02 11:23:48;;;;;;;0.00;0.00;;;;;;;34.27;38.42;100609.78;5077037;28;20621;-58
2023/10/02 11:26:14;;;;;;;0.00;0.00;;;;;;;34.32;38.15;100612.84;5080818;28;20078;-58
2023/10/02 11:28:42;;;;;;;0.00;0.00;;;;;;;34.41;38.03;100609.00;5083077;28;20397;-58
2023/10/02 11:31:45;;;;;;;0.00;0.00;;;;;;;34.09;37.57;100595.47;5069299;28;20059;-58
2023/10/02 11:34:11;;;;;;;0.00;0.00;;;;;;;34.49;37.62;100595.09;5068798;28;20056;-59
2023/10/02 11:36:50;;;;;;;0.00;0.00;;;;;;;34.56;38.55;100585.00;5072776;28;20071;-59
2023/10/02 11:39:19;;;;;;;0.00;0.00;;;;;;;34.60;37.29;100582.72;5075341;28;20480;-59
2023/10/02 11:41:46;;;;;;;0.00;0.00;;;;;;;34.74;36.19;100568.03;5088950;28;20444;-59
2023/10/02 11:44:13;;;;;;;0.00;0.00;;;;;;;34.46;37.06;100567.84;5090645;28;20110;-60
2023/10/02 11:46:46;;;;;;;0.00;0.00;;;;;;;34.24;37.77;100571.50;5093164;28;20486;-60
2023/10/02 11:49:12;;;;;;;0.00;0.00;;;;;;;34.87;37.88;100560.78;5093111;28;20032;-59
2023/10/02 11:51:38;;;;;;;0.00;0.00;;;;;;;35.21;36.49;100558.25;5086929;28;20047;-60
2023/10/02 11:54:08;;;;;;;0.00;0.00;;;;;;;35.16;37.19;100560.75;5078525;28;20024;-60
2023/10/02 11:56:34;;;;;;;0.00;0.00;;;;;;;35.14;36.29;100554.53;5070709;28;20024;-60
2023/10/02 11:59:00;;;;;;;0.00;0.00;;;;;;;34.70;37.22;100548.19;5090210;28;20074;-58
2023/10/02 12:01:26;;;;;;;0.00;0.00;;;;;;;35.03;37.31;100546.75;5087171;28;20034;-58
2023/10/02 12:03:56;;;;;;;0.00;0.00;;;;;;;35.40;34.04;100543.84;5071547;28;20099;-58
2023/10/02 12:06:24;;;;;;;0.00;0.00;;;;;;;35.78;35.29;100533.34;5071305;28;20024;-58
2023/10/02 12:08:50;;;;;;;0.00;0.00;;;;;;;35.89;35.16;100531.97;5072460;28;20032;-58
2023/10/02 12:11:15;;;;;;;0.00;0.00;;;;;;;36.14;35.10;100524.91;5069521;28;20048;-58
2023/10/02 12:13:44;;;;;;;0.00;0.00;;;;;;;35.97;34.05;100529.03;5065975;28;20036;-58
2023/10/02 12:16:13;;;;;;;0.00;0.00;;;;;;;35.93;35.85;100527.75;5065901;28;20028;-58
2023/10/02 12:18:38;;;;;;;0.00;0.00;;;;;;;35.94;36.44;100523.91;5066404;28;20035;-57
2023/10/02 12:21:09;;;;;;;0.00;0.00;;;;;;;36.16;35.22;100517.28;5072510;28;20017;-58
2023/10/02 12:23:39;;;;;;;0.00;0.00;;;;;;;36.48;34.91;100505.56;5069700;28;20063;-58
2023/10/02 12:26:09;;;;;;;0.00;0.00;;;;;;;36.27;35.24;100503.69;5072674;28;20483;-58
2023/10/02 12:28:38;;;;;;;0.00;0.00;;;;;;;35.94;35.20;100501.75;5062718;28;20039;-58
2023/10/02 12:31:13;;;;;;;0.00;0.00;;;;;;;36.13;34.94;100498.28;5052617;28;20471;-58